首页
METAR-TAF:

METAR-TAF

机场 :

Shelby County Airport

阿拉巴斯特, 阿拉巴马州, 美国

纬度: 33-10-42N, 经度: 086-46-54W, 海拔: 178米

当前天气观测

该预报发布于51分钟前的17:53 UTC
风速3节,风向多变
温度 28°C
湿度 70%
气压 1015 hPa
能見度: 16.1公里
少量云层高于2600英尺
少量云层高于3700英尺

METAR: KEET 041753Z AUTO VRB03KT 10SM FEW026 FEW037 28/22 A2997 RMK AO2 SLP141 6//// T02830217 10283 20217 58013

时间: 13:44 (18:44 UTC)

预报

该预报发布于1小时和10分钟前的17:34 UTC
预报有效从04日的 18点(UTC)到 05日的 18点(UTC)
风速5节,风向西转西北
能見度: 10公里
散云层高于2700英尺
散云层高于3500英尺
附近有阵雨
从 05日的 0300点(UTC)
风速4节,风向多变
能見度: 10公里
多云层高于3000英尺
几率 30%
从 05日的 03点(UTC)到 05日的 09点(UTC)
能見度: 6.4公里
阴天层高于2000英尺
阵雨
从 05日的 1200点(UTC)
风速6节,风向西转西南
能見度: 10公里
多云层高于3000英尺
几率 30%
从 05日的 12点(UTC)到 05日的 18点(UTC)
能見度: 6.4公里
阴天层高于2000英尺
阵雨

TAF: KEET 041734Z 0418/0518 29005KT P6SM VCSH SCT027 SCT035 FM050300 VRB04KT P6SM BKN030 PROB30 0503/0509 4SM SHRA OVC020 FM051200 25006KT P6SM BKN030 PROB30 0512/0518 4SM SHRA OVC020

超过4000个机场的气象观测和天气预报(METAR&TAF报告)。

可查询的气象台以黄色和红色小点在地图上表示。

将鼠标移到小点上方,可查看气象台名称。

然后点击查看天气观测和预报。

如需切换地图:点击带黑十字的绿色按钮放大地图;点击带横线的绿色按钮缩小地图;或者点击绿色箭头查看邻近地区的地图。


METAR-TAF: